Time;durP1;ratioP1;P1;durP2;ratioP2;P2;SDS_P1;SDS_P2;PMS_P1;PMS_P2;Temp;Humidity;BMP_temperature;BMP_pressure;BME280_temperature;BME280_humidity;BME280_pressure;Samples;Min_cycle;Max_cycle;Signal;HPM_P1;HPM_P2
2023/07/01 00:00:39;;;;;;;1.23;1.13;;;;;;;;;;6247483;23;20189;-92
2023/07/01 00:03:07;;;;;;;0.80;0.80;;;;;;;;;;6246847;23;20183;-92
2023/07/01 00:05:35;;;;;;;0.93;0.93;;;;;;;;;;6245898;23;20263;-91
2023/07/01 00:08:02;;;;;;;1.10;1.10;;;;;;;;;;6245918;23;20207;-91
2023/07/01 00:10:30;;;;;;;1.00;0.98;;;;;;;;;;6245450;23;20577;-92
2023/07/01 00:12:57;;;;;;;1.40;1.30;;;;;;;;;;6246276;23;20244;-91
2023/07/01 00:15:26;;;;;;;0.88;0.88;;;;;;;;;;6245439;23;20263;-91
2023/07/01 00:17:54;;;;;;;1.38;0.90;;;;;;;;;;6245715;23;20249;-91
2023/07/01 00:20:22;;;;;;;1.25;1.20;;;;;;;;;;6245534;23;20612;-91
2023/07/01 00:22:49;;;;;;;0.85;0.85;;;;;;;;;;6245522;23;20169;-91
2023/07/01 00:25:17;;;;;;;1.00;1.00;;;;;;;;;;6245314;23;20273;-91
2023/07/01 00:27:45;;;;;;;1.00;1.00;;;;;;;;;;6245524;23;20203;-91
2023/07/01 00:30:13;;;;;;;1.73;0.95;;;;;;;;;;6245398;23;20240;-91
2023/07/01 00:32:42;;;;;;;1.00;1.00;;;;;;;;;;6245380;23;20172;-91
2023/07/01 00:35:10;;;;;;;1.13;1.10;;;;;;;;;;6245360;23;20570;-91
2023/07/01 00:37:37;;;;;;;0.77;0.77;;;;;;;;;;6245382;23;20569;-91
2023/07/01 00:40:06;;;;;;;1.42;1.10;;;;;;;;;;6246704;23;20264;-90
2023/07/01 00:42:34;;;;;;;1.35;1.27;;;;;;;;;;6250256;22;20169;-92
2023/07/01 00:45:01;;;;;;;1.70;0.82;;;;;;;;;;6246575;23;20667;-91
2023/07/01 00:47:29;;;;;;;1.67;1.42;;;;;;;;;;6245692;23;20560;-91
2023/07/01 00:49:58;;;;;;;1.92;1.45;;;;;;;;;;6245784;23;20248;-91
2023/07/01 00:52:26;;;;;;;1.50;1.17;;;;;;;;;;6255597;23;20581;-91
2023/07/01 00:54:54;;;;;;;1.50;1.40;;;;;;;;;;6261413;23;20682;-90
2023/07/01 00:57:21;;;;;;;1.50;1.35;;;;;;;;;;6262669;23;20170;-90
2023/07/01 00:59:49;;;;;;;2.03;1.33;;;;;;;;;;6262490;23;20177;-90
2023/07/01 01:02:24;;;;;;;1.63;1.52;;;;;;;;;;6261546;23;20180;-91
2023/07/01 01:05:01;;;;;;;2.65;1.30;;;;;;;;;;6262969;22;20208;-90
2023/07/01 01:07:34;;;;;;;1.17;1.05;;;;;;;;;;6264432;22;20199;-91
2023/07/01 01:10:05;;;;;;;1.40;1.30;;;;;;;;;;6262341;23;20169;-92
2023/07/01 01:12:35;;;;;;;1.23;1.23;;;;;;;;;;6267724;23;20173;-91
2023/07/01 01:15:04;;;;;;;1.70;1.60;;;;;;;;;;6263413;23;20559;-90
2023/07/01 01:17:34;;;;;;;2.30;1.85;;;;;;;;;;6262025;23;20157;-91
2023/07/01 01:20:12;;;;;;;1.38;1.27;;;;;;;;;;6266460;23;20156;-91
2023/07/01 01:22:45;;;;;;;1.40;1.30;;;;;;;;;;6271546;23;20165;-91
2023/07/01 01:25:24;;;;;;;1.27;1.27;;;;;;;;;;6269768;22;20201;-91
2023/07/01 01:27:54;;;;;;;1.60;1.50;;;;;;;;;;6267305;23;20192;-91
2023/07/01 01:30:23;;;;;;;1.45;1.35;;;;;;;;;;6263393;23;20166;-91
2023/07/01 01:32:50;;;;;;;1.35;1.25;;;;;;;;;;6265332;23;20188;-92
2023/07/01 01:35:18;;;;;;;0.93;0.93;;;;;;;;;;6263790;23;20193;-91
2023/07/01 01:37:52;;;;;;;1.00;0.90;;;;;;;;;;6261803;23;20164;-91
2023/07/01 01:40:25;;;;;;;2.00;1.10;;;;;;;;;;6248699;23;20196;-91
2023/07/01 01:43:00;;;;;;;2.60;1.38;;;;;;;;;;6246866;23;20205;-91
2023/07/01 01:45:28;;;;;;;1.40;1.30;;;;;;;;;;6246556;22;20171;-91
2023/07/01 01:47:56;;;;;;;1.00;1.00;;;;;;;;;;6246691;23;20220;-92
2023/07/01 01:50:24;;;;;;;4.13;2.40;;;;;;;;;;6246394;23;20165;-91
2023/07/01 01:52:52;;;;;;;1.23;1.15;;;;;;;;;;6246814;23;20305;-91
2023/07/01 01:55:21;;;;;;;1.60;1.50;;;;;;;;;;6246129;23;20189;-91
2023/07/01 01:57:49;;;;;;;1.70;1.30;;;;;;;;;;6246416;23;20189;-91
2023/07/01 02:00:41;;;;;;;2.28;1.33;;;;;;;;;;6246741;23;20176;-91
2023/07/01 02:03:08;;;;;;;1.92;1.45;;;;;;;;;;6250604;23;20177;-91
2023/07/01 02:05:36;;;;;;;1.85;1.75;;;;;;;;;;6246301;23;20631;-92
2023/07/01 02:08:05;;;;;;;2.35;1.50;;;;;;;;;;6246209;23;20188;-91
2023/07/01 02:10:33;;;;;;;1.85;1.50;;;;;;;;;;6246097;23;20240;-92
2023/07/01 02:13:02;;;;;;;1.80;1.50;;;;;;;;;;6246172;23;20166;-92
2023/07/01 02:15:30;;;;;;;1.20;1.10;;;;;;;;;;6246286;23;20508;-91
2023/07/01 02:17:59;;;;;;;1.27;1.17;;;;;;;;;;6246334;22;20719;-92
2023/07/01 02:20:26;;;;;;;1.30;1.20;;;;;;;;;;6244954;23;20203;-91
2023/07/01 02:22:54;;;;;;;1.67;1.15;;;;;;;;;;6246192;23;20169;-92
2023/07/01 02:25:22;;;;;;;1.48;1.38;;;;;;;;;;6245457;23;20600;-92
2023/07/01 02:27:49;;;;;;;1.50;1.40;;;;;;;;;;6245528;23;20707;-91
2023/07/01 02:30:17;;;;;;;1.45;1.35;;;;;;;;;;6247101;23;20169;-91
2023/07/01 02:32:45;;;;;;;2.15;1.30;;;;;;;;;;6266660;22;20180;-90
2023/07/01 02:35:14;;;;;;;1.25;1.20;;;;;;;;;;6274879;22;20193;-90
2023/07/01 02:37:41;;;;;;;1.10;1.00;;;;;;;;;;6274582;22;20157;-88
2023/07/01 02:40:11;;;;;;;1.27;1.27;;;;;;;;;;6274995;22;20181;-90
2023/07/01 02:42:38;;;;;;;1.70;1.60;;;;;;;;;;6274812;22;20161;-91
2023/07/01 02:45:07;;;;;;;1.40;1.30;;;;;;;;;;6268412;22;20199;-91
2023/07/01 02:47:34;;;;;;;1.50;1.40;;;;;;;;;;6257852;23;20725;-91
2023/07/01 02:50:04;;;;;;;2.10;1.77;;;;;;;;;;6251897;23;20204;-91
2023/07/01 02:52:33;;;;;;;1.67;1.45;;;;;;;;;;6248882;23;20180;-91
2023/07/01 02:55:00;;;;;;;2.08;1.70;;;;;;;;;;6246856;23;20292;-92
2023/07/01 02:57:28;;;;;;;1.88;1.77;;;;;;;;;;6246613;23;20200;-91
2023/07/01 02:59:57;;;;;;;1.50;1.40;;;;;;;;;;6246288;23;20175;-92
2023/07/01 03:02:25;;;;;;;2.20;1.80;;;;;;;;;;6246128;23;20172;-91
2023/07/01 03:04:52;;;;;;;1.80;1.50;;;;;;;;;;6246094;23;20227;-91
2023/07/01 03:07:20;;;;;;;1.75;1.50;;;;;;;;;;6246143;23;20573;-91
2023/07/01 03:09:49;;;;;;;1.40;1.25;;;;;;;;;;6245967;23;20207;-92
2023/07/01 03:12:16;;;;;;;1.00;1.00;;;;;;;;;;6246038;23;20224;-92
2023/07/01 03:14:44;;;;;;;1.58;1.48;;;;;;;;;;6246203;23;20185;-91
2023/07/01 03:17:12;;;;;;;1.30;1.20;;;;;;;;;;6246130;23;20234;-92
2023/07/01 03:19:41;;;;;;;1.50;1.40;;;;;;;;;;6245959;23;20165;-92
2023/07/01 03:22:09;;;;;;;2.60;1.42;;;;;;;;;;6245835;23;20172;-92
2023/07/01 03:24:36;;;;;;;2.13;1.50;;;;;;;;;;6246221;23;20216;-92
2023/07/01 03:27:07;;;;;;;1.33;1.30;;;;;;;;;;6246674;23;20647;-91
2023/07/01 03:29:35;;;;;;;1.65;1.30;;;;;;;;;;6245862;23;20173;-92
2023/07/01 03:32:03;;;;;;;2.10;1.30;;;;;;;;;;6253933;23;20176;-92
2023/07/01 03:34:30;;;;;;;2.08;1.67;;;;;;;;;;6272413;23;20189;-92
2023/07/01 03:36:58;;;;;;;3.30;1.80;;;;;;;;;;6273426;23;20153;-90
2023/07/01 03:39:26;;;;;;;1.60;1.50;;;;;;;;;;6273545;23;20172;-91
2023/07/01 03:41:53;;;;;;;1.75;1.50;;;;;;;;;;6272326;23;20186;-91
2023/07/01 03:44:22;;;;;;;2.65;1.40;;;;;;;;;;6260490;22;20196;-91
2023/07/01 03:46:50;;;;;;;1.92;1.55;;;;;;;;;;6248089;23;20247;-91
2023/07/01 03:49:18;;;;;;;1.33;1.25;;;;;;;;;;6247546;23;20219;-91
2023/07/01 03:51:46;;;;;;;1.52;1.33;;;;;;;;;;6246670;23;20165;-91
2023/07/01 03:54:13;;;;;;;2.47;1.58;;;;;;;;;;6246179;23;20264;-91
2023/07/01 03:56:41;;;;;;;1.60;1.50;;;;;;;;;;6246207;22;20166;-91
2023/07/01 03:59:08;;;;;;;1.60;1.50;;;;;;;;;;6246512;23;20633;-91
2023/07/01 04:01:38;;;;;;;3.17;1.80;;;;;;;;;;6246198;23;20180;-92
2023/07/01 04:04:05;;;;;;;1.48;1.38;;;;;;;;;;6245613;23;20243;-91
2023/07/01 04:06:33;;;;;;;1.52;1.42;;;;;;;;;;6245671;23;20645;-91
2023/07/01 04:09:01;;;;;;;2.13;1.40;;;;;;;;;;6245928;23;20509;-92
2023/07/01 04:11:30;;;;;;;1.42;1.33;;;;;;;;;;6245228;23;20169;-92
2023/07/01 04:13:59;;;;;;;1.35;1.20;;;;;;;;;;6245597;23;20195;-92
2023/07/01 04:16:26;;;;;;;1.30;1.20;;;;;;;;;;6245302;23;20272;-91
2023/07/01 04:18:56;;;;;;;1.25;1.15;;;;;;;;;;6245471;23;20169;-92
2023/07/01 04:21:24;;;;;;;1.52;1.42;;;;;;;;;;6246067;23;20543;-92
2023/07/01 04:23:51;;;;;;;1.42;1.33;;;;;;;;;;6245183;23;20189;-92
2023/07/01 04:26:19;;;;;;;1.92;1.83;;;;;;;;;;6245463;23;20219;-93
2023/07/01 04:28:47;;;;;;;2.83;1.50;;;;;;;;;;6245710;23;20220;-91
2023/07/01 04:31:14;;;;;;;1.25;1.20;;;;;;;;;;6245567;23;20240;-91
2023/07/01 04:33:42;;;;;;;2.20;1.63;;;;;;;;;;6245217;23;20744;-91
2023/07/01 04:36:11;;;;;;;1.58;1.48;;;;;;;;;;6245824;22;20565;-91
2023/07/01 04:38:38;;;;;;;1.95;1.77;;;;;;;;;;6247840;23;20181;-90
2023/07/01 04:41:06;;;;;;;1.42;1.33;;;;;;;;;;6246564;23;20233;-91
2023/07/01 04:43:34;;;;;;;3.40;1.40;;;;;;;;;;6246379;23;20189;-91
2023/07/01 04:46:01;;;;;;;1.45;1.35;;;;;;;;;;6247613;23;20189;-91
2023/07/01 04:48:29;;;;;;;1.42;1.33;;;;;;;;;;6247584;23;20219;-92
2023/07/01 04:50:56;;;;;;;1.38;1.25;;;;;;;;;;6248392;23;20567;-91
2023/07/01 04:53:26;;;;;;;1.33;1.30;;;;;;;;;;6247088;23;20193;-91
2023/07/01 04:55:53;;;;;;;1.70;1.60;;;;;;;;;;6247569;23;20207;-90
2023/07/01 04:58:21;;;;;;;1.75;1.55;;;;;;;;;;6249842;23;20184;-91
2023/07/01 05:00:49;;;;;;;1.80;1.20;;;;;;;;;;6260557;22;20191;-92
2023/07/01 05:03:17;;;;;;;1.20;1.20;;;;;;;;;;6268419;22;20180;-91
2023/07/01 05:05:44;;;;;;;2.45;1.75;;;;;;;;;;6267553;22;20173;-93
2023/07/01 05:08:12;;;;;;;1.63;1.50;;;;;;;;;;6272420;22;20189;-94
2023/07/01 05:10:41;;;;;;;1.80;1.35;;;;;;;;;;6266158;23;20169;-92
2023/07/01 05:13:09;;;;;;;1.67;1.58;;;;;;;;;;6262714;23;20176;-93
2023/07/01 05:15:37;;;;;;;1.25;1.20;;;;;;;;;;6256870;22;20169;-92
2023/07/01 05:18:05;;;;;;;4.22;1.90;;;;;;;;;;6255318;23;20189;-92
2023/07/01 05:20:33;;;;;;;2.08;1.35;;;;;;;;;;6256045;22;20181;-92
2023/07/01 05:23:00;;;;;;;1.40;1.20;;;;;;;;;;6255462;23;20185;-92
2023/07/01 05:25:31;;;;;;;1.77;1.60;;;;;;;;;;6256138;22;20193;-92
2023/07/01 05:28:00;;;;;;;1.67;1.55;;;;;;;;;;6271767;22;20164;-92
2023/07/01 05:30:27;;;;;;;1.67;1.58;;;;;;;;;;6276186;22;20157;-92
2023/07/01 05:32:55;;;;;;;2.10;1.40;;;;;;;;;;6275594;22;20169;-91
2023/07/01 05:35:23;;;;;;;1.33;1.23;;;;;;;;;;6275357;22;20184;-92
2023/07/01 05:37:50;;;;;;;2.55;2.35;;;;;;;;;;6275511;22;20176;-93
2023/07/01 05:40:18;;;;;;;1.65;1.55;;;;;;;;;;6273883;22;20173;-92
2023/07/01 05:42:46;;;;;;;2.00;1.60;;;;;;;;;;6258146;23;20256;-92
2023/07/01 05:45:15;;;;;;;1.50;1.40;;;;;;;;;;6257152;23;20278;-93
2023/07/01 05:47:43;;;;;;;1.52;1.42;;;;;;;;;;6260646;22;20180;-92
2023/07/01 05:50:11;;;;;;;2.30;1.70;;;;;;;;;;6257671;23;20189;-92
2023/07/01 05:52:38;;;;;;;1.40;1.30;;;;;;;;;;6256698;23;20193;-91
2023/07/01 05:55:08;;;;;;;2.47;1.25;;;;;;;;;;6257001;23;20193;-91
2023/07/01 05:57:35;;;;;;;1.65;1.55;;;;;;;;;;6263135;23;20180;-92
2023/07/01 06:00:04;;;;;;;1.92;1.83;;;;;;;;;;6261994;23;20169;-93
2023/07/01 06:02:33;;;;;;;1.20;1.10;;;;;;;;;;6266048;23;20185;-92
2023/07/01 06:05:01;;;;;;;1.45;1.35;;;;;;;;;;6266644;23;20189;-93
2023/07/01 06:07:28;;;;;;;1.92;1.83;;;;;;;;;;6267483;22;20161;-92
2023/07/01 06:09:56;;;;;;;1.58;1.45;;;;;;;;;;6270269;23;20196;-92
2023/07/01 06:12:24;;;;;;;2.35;1.50;;;;;;;;;;6270507;22;20176;-92
2023/07/01 06:14:52;;;;;;;2.15;1.75;;;;;;;;;;6268512;23;20193;-92
2023/07/01 06:17:19;;;;;;;2.63;2.08;;;;;;;;;;6270114;22;20160;-92
2023/07/01 06:19:48;;;;;;;1.60;1.50;;;;;;;;;;6269009;23;20180;-92
2023/07/01 06:22:16;;;;;;;1.58;1.48;;;;;;;;;;6270207;22;20165;-92
2023/07/01 06:24:43;;;;;;;2.00;1.70;;;;;;;;;;6264976;23;20200;-92
2023/07/01 06:27:11;;;;;;;4.57;1.88;;;;;;;;;;6265292;23;20169;-92
2023/07/01 06:29:38;;;;;;;2.42;2.22;;;;;;;;;;6266855;23;20199;-92
2023/07/01 06:32:08;;;;;;;1.92;1.83;;;;;;;;;;6264889;23;20173;-92
2023/07/01 06:34:35;;;;;;;1.95;1.85;;;;;;;;;;6265549;22;20196;-92
2023/07/01 06:37:05;;;;;;;1.50;1.40;;;;;;;;;;6263719;23;20223;-92
2023/07/01 06:39:33;;;;;;;2.45;1.63;;;;;;;;;;6265834;23;20207;-92
2023/07/01 06:42:00;;;;;;;1.80;1.70;;;;;;;;;;6259961;23;20181;-92
2023/07/01 06:44:28;;;;;;;1.65;1.55;;;;;;;;;;6264522;23;20200;-93
2023/07/01 06:46:56;;;;;;;1.85;1.75;;;;;;;;;;6267974;23;20207;-92
2023/07/01 06:49:23;;;;;;;2.50;1.90;;;;;;;;;;6265783;23;20535;-92
2023/07/01 06:51:51;;;;;;;1.80;1.70;;;;;;;;;;6268603;23;20169;-93
2023/07/01 06:54:20;;;;;;;2.60;2.10;;;;;;;;;;6269371;23;20177;-92
2023/07/01 06:56:47;;;;;;;1.40;1.30;;;;;;;;;;6266630;23;20184;-92
2023/07/01 06:59:15;;;;;;;2.70;1.77;;;;;;;;;;6268678;22;20180;-93
2023/07/01 07:01:43;;;;;;;1.63;1.52;;;;;;;;;;6264527;23;20169;-93
2023/07/01 07:04:10;;;;;;;2.05;1.88;;;;;;;;;;6266667;23;20189;-92
2023/07/01 07:06:38;;;;;;;4.55;1.88;;;;;;;;;;6269173;23;20172;-92
2023/07/01 07:09:05;;;;;;;1.95;1.65;;;;;;;;;;6266779;23;20172;-92
2023/07/01 07:11:38;;;;;;;1.65;1.50;;;;;;;;;;6267208;23;20165;-92
2023/07/01 07:14:06;;;;;;;1.95;1.73;;;;;;;;;;6258260;23;20201;-92
2023/07/01 07:16:35;;;;;;;3.42;2.30;;;;;;;;;;6260496;23;20514;-93
2023/07/01 07:19:03;;;;;;;2.30;1.70;;;;;;;;;;6262900;23;20166;-92
2023/07/01 07:21:30;;;;;;;2.33;1.50;;;;;;;;;;6258474;23;20176;-93
2023/07/01 07:23:58;;;;;;;1.75;1.40;;;;;;;;;;6254921;23;20685;-93
2023/07/01 07:26:26;;;;;;;2.45;2.25;;;;;;;;;;6254300;23;20188;-92
2023/07/01 07:28:56;;;;;;;1.80;1.70;;;;;;;;;;6257969;23;20173;-91
2023/07/01 07:31:23;;;;;;;2.78;1.60;;;;;;;;;;6252090;23;20241;-91
2023/07/01 07:33:51;;;;;;;1.13;1.13;;;;;;;;;;6250431;23;20196;-92
2023/07/01 07:36:18;;;;;;;2.13;1.92;;;;;;;;;;6251927;23;20653;-91
2023/07/01 07:38:46;;;;;;;1.50;1.40;;;;;;;;;;6254207;23;20622;-92
2023/07/01 07:41:14;;;;;;;1.42;1.33;;;;;;;;;;6251712;23;20165;-92
2023/07/01 07:43:41;;;;;;;2.05;1.90;;;;;;;;;;6255148;23;20212;-92
2023/07/01 07:46:10;;;;;;;2.53;2.33;;;;;;;;;;6254803;23;20173;-92
2023/07/01 07:48:38;;;;;;;2.20;2.00;;;;;;;;;;6253984;23;20351;-93
2023/07/01 07:51:05;;;;;;;1.60;1.50;;;;;;;;;;6254602;22;20189;-92
2023/07/01 07:53:33;;;;;;;2.03;1.77;;;;;;;;;;6256438;23;20197;-92
2023/07/01 07:56:01;;;;;;;2.95;2.20;;;;;;;;;;6257631;23;20172;-92
2023/07/01 07:58:28;;;;;;;8.57;2.60;;;;;;;;;;6247952;23;20177;-92
2023/07/01 08:00:56;;;;;;;2.10;1.55;;;;;;;;;;6255054;23;20169;-92
2023/07/01 08:03:25;;;;;;;4.35;2.35;;;;;;;;;;6256598;23;20185;-92
2023/07/01 08:05:52;;;;;;;2.20;2.00;;;;;;;;;;6240704;22;20205;-85
2023/07/01 08:08:20;;;;;;;2.80;2.00;;;;;;;;;;6221366;23;20229;-84
2023/07/01 08:10:47;;;;;;;1.77;1.67;;;;;;;;;;6247852;23;20664;-84
2023/07/01 08:13:15;;;;;;;1.90;1.80;;;;;;;;;;6250226;22;20205;-84
2023/07/01 08:15:43;;;;;;;1.83;1.67;;;;;;;;;;6250594;23;20177;-85
2023/07/01 08:18:11;;;;;;;2.50;2.17;;;;;;;;;;6250579;23;20200;-85
2023/07/01 08:20:40;;;;;;;2.00;1.83;;;;;;;;;;6253341;23;20207;-86
2023/07/01 08:23:07;;;;;;;1.95;1.75;;;;;;;;;;6252895;22;20203;-84
2023/07/01 08:25:36;;;;;;;1.90;1.80;;;;;;;;;;6251944;22;20204;-84
2023/07/01 08:28:03;;;;;;;2.05;1.75;;;;;;;;;;6254183;22;20513;-84
2023/07/01 08:30:31;;;;;;;2.10;1.98;;;;;;;;;;6253739;22;20356;-86
2023/07/01 08:32:58;;;;;;;2.13;1.75;;;;;;;;;;6253345;22;20204;-86
2023/07/01 08:35:26;;;;;;;2.38;1.92;;;;;;;;;;6253838;22;20579;-83
2023/07/01 08:37:54;;;;;;;2.40;2.20;;;;;;;;;;6253413;22;20177;-83
2023/07/01 08:40:22;;;;;;;2.50;1.75;;;;;;;;;;6254238;22;20224;-84
2023/07/01 08:42:51;;;;;;;4.85;1.98;;;;;;;;;;6252796;22;20204;-83
2023/07/01 08:45:22;;;;;;;3.13;1.80;;;;;;;;;;6253297;23;20247;-85
2023/07/01 08:47:50;;;;;;;1.67;1.58;;;;;;;;;;6253204;23;20552;-85
2023/07/01 08:50:21;;;;;;;1.60;1.50;;;;;;;;;;6253565;23;20296;-85
2023/07/01 08:52:52;;;;;;;2.28;1.75;;;;;;;;;;6253792;23;20192;-86
2023/07/01 08:55:21;;;;;;;1.60;1.50;;;;;;;;;;6252341;23;20605;-85
2023/07/01 08:57:50;;;;;;;2.47;1.63;;;;;;;;;;6252547;23;20204;-85
2023/07/01 09:00:17;;;;;;;2.55;1.58;;;;;;;;;;6252085;22;20667;-85
2023/07/01 09:02:45;;;;;;;2.13;1.98;;;;;;;;;;6253827;22;20256;-86
2023/07/01 09:05:12;;;;;;;2.97;1.60;;;;;;;;;;6250760;23;20280;-85
2023/07/01 09:07:42;;;;;;;1.77;1.67;;;;;;;;;;6250958;22;20204;-86
2023/07/01 09:10:12;;;;;;;1.40;1.30;;;;;;;;;;6254621;23;20268;-86
2023/07/01 09:12:40;;;;;;;2.38;2.10;;;;;;;;;;6253401;23;20680;-86
2023/07/01 09:15:09;;;;;;;3.78;2.47;;;;;;;;;;6253283;23;20161;-84
2023/07/01 09:17:39;;;;;;;3.20;2.20;;;;;;;;;;6251118;23;20204;-84
2023/07/01 09:20:09;;;;;;;2.80;1.88;;;;;;;;;;6252343;23;20220;-86
2023/07/01 09:22:39;;;;;;;3.47;2.70;;;;;;;;;;6252290;22;20184;-86
2023/07/01 09:25:08;;;;;;;2.38;2.17;;;;;;;;;;6252993;23;20248;-86
2023/07/01 09:27:46;;;;;;;2.10;1.98;;;;;;;;;;6253351;22;20553;-86
2023/07/01 09:30:25;;;;;;;3.05;2.10;;;;;;;;;;6250976;23;20189;-85
2023/07/01 09:32:53;;;;;;;2.70;2.50;;;;;;;;;;6250283;23;20161;-86
2023/07/01 09:35:26;;;;;;;3.13;2.05;;;;;;;;;;6251770;23;20196;-85
2023/07/01 09:38:03;;;;;;;1.95;1.77;;;;;;;;;;6253877;23;20524;-86
2023/07/01 09:40:30;;;;;;;2.05;1.52;;;;;;;;;;6252122;23;20272;-86
2023/07/01 09:42:59;;;;;;;2.80;1.70;;;;;;;;;;6253478;23;20176;-86
2023/07/01 09:45:27;;;;;;;3.80;3.17;;;;;;;;;;6250586;22;20208;-85
2023/07/01 09:47:55;;;;;;;2.35;2.15;;;;;;;;;;6253964;23;20181;-86
2023/07/01 09:50:23;;;;;;;1.77;1.45;;;;;;;;;;6252308;23;20243;-86
2023/07/01 09:52:53;;;;;;;1.95;1.70;;;;;;;;;;6252272;23;20252;-84
2023/07/01 09:55:21;;;;;;;1.83;1.63;;;;;;;;;;6251805;22;20180;-85
2023/07/01 09:57:49;;;;;;;1.63;1.50;;;;;;;;;;6252313;23;20201;-86
2023/07/01 10:00:18;;;;;;;3.53;1.60;;;;;;;;;;6252643;23;20590;-86
2023/07/01 10:02:46;;;;;;;1.40;1.40;;;;;;;;;;6252205;22;20173;-86
2023/07/01 10:05:13;;;;;;;1.83;1.73;;;;;;;;;;6252595;23;20241;-85
2023/07/01 10:07:42;;;;;;;1.90;1.80;;;;;;;;;;6253463;23;20259;-86
2023/07/01 10:10:13;;;;;;;1.95;1.80;;;;;;;;;;6251765;23;20208;-83
2023/07/01 10:12:41;;;;;;;1.23;1.13;;;;;;;;;;6253440;23;20260;-84
2023/07/01 10:15:10;;;;;;;2.03;1.70;;;;;;;;;;6251070;23;20508;-84
2023/07/01 10:17:47;;;;;;;1.60;1.50;;;;;;;;;;6251100;23;20260;-85
2023/07/01 10:20:30;;;;;;;1.75;1.65;;;;;;;;;;6250770;23;20207;-85
2023/07/01 10:22:58;;;;;;;2.67;2.10;;;;;;;;;;6251566;23;20232;-85
2023/07/01 10:25:34;;;;;;;2.42;1.73;;;;;;;;;;6250968;23;20184;-87
2023/07/01 10:28:07;;;;;;;1.67;1.50;;;;;;;;;;6250336;22;20244;-85
2023/07/01 10:31:13;;;;;;;1.83;1.48;;;;;;;;;;6250289;23;20235;-85
2023/07/01 10:33:57;;;;;;;1.35;1.20;;;;;;;;;;6247430;22;20203;-86
2023/07/01 10:36:26;;;;;;;1.27;1.17;;;;;;;;;;6246823;22;20181;-85
2023/07/01 10:38:54;;;;;;;2.55;1.50;;;;;;;;;;6250938;23;20231;-85
2023/07/01 10:41:52;;;;;;;2.28;1.38;;;;;;;;;;6249743;23;20173;-85
2023/07/01 10:44:25;;;;;;;2.05;1.83;;;;;;;;;;6199446;22;20178;-85
2023/07/01 10:47:17;;;;;;;1.83;1.67;;;;;;;;;;6249412;23;20177;-85
2023/07/01 10:50:10;;;;;;;1.40;1.30;;;;;;;;;;6250096;23;20204;-85
2023/07/01 10:53:03;;;;;;;3.38;1.98;;;;;;;;;;6249342;23;20200;-85
2023/07/01 10:55:43;;;;;;;2.13;1.92;;;;;;;;;;6249415;23;20177;-83
2023/07/01 10:58:21;;;;;;;1.83;1.40;;;;;;;;;;6250525;23;20160;-85
2023/07/01 11:00:48;;;;;;;1.60;1.50;;;;;;;;;;6249221;23;20243;-86
2023/07/01 11:03:57;;;;;;;1.65;1.55;;;;;;;;;;6248579;22;20256;-84
2023/07/01 11:06:26;;;;;;;1.08;1.08;;;;;;;;;;6248721;23;20548;-85
2023/07/01 11:08:56;;;;;;;4.25;1.48;;;;;;;;;;6248662;22;20227;-86
2023/07/01 11:11:26;;;;;;;1.63;1.38;;;;;;;;;;6249225;23;20164;-86
2023/07/01 11:13:59;;;;;;;1.10;1.10;;;;;;;;;;6248268;23;20161;-85
2023/07/01 11:16:28;;;;;;;1.40;1.30;;;;;;;;;;6248840;23;20628;-85
2023/07/01 11:18:57;;;;;;;1.20;1.10;;;;;;;;;;6247580;23;20197;-86
2023/07/01 11:21:28;;;;;;;2.33;1.52;;;;;;;;;;6248655;23;20212;-85
2023/07/01 11:23:58;;;;;;;1.30;1.20;;;;;;;;;;6247537;23;20193;-85
2023/07/01 11:26:28;;;;;;;1.20;1.10;;;;;;;;;;6247896;22;20540;-85
2023/07/01 11:28:55;;;;;;;1.40;1.30;;;;;;;;;;6248050;23;20268;-84
2023/07/01 11:31:25;;;;;;;2.25;1.50;;;;;;;;;;6248945;22;20177;-84
2023/07/01 11:33:55;;;;;;;1.60;1.50;;;;;;;;;;6247298;23;20615;-86
2023/07/01 11:36:35;;;;;;;1.38;1.27;;;;;;;;;;6248620;23;20177;-85
2023/07/01 11:39:08;;;;;;;1.67;1.58;;;;;;;;;;6248415;23;20197;-86
2023/07/01 11:41:36;;;;;;;2.08;1.25;;;;;;;;;;6254181;23;20197;-85
2023/07/01 11:44:04;;;;;;;3.00;1.40;;;;;;;;;;6259775;23;20177;-84
2023/07/01 11:46:34;;;;;;;1.23;1.23;;;;;;;;;;6257741;23;20227;-84
2023/07/01 11:49:16;;;;;;;1.70;1.45;;;;;;;;;;6256774;23;20208;-84
2023/07/01 11:51:48;;;;;;;2.83;1.67;;;;;;;;;;6255315;23;20188;-84
2023/07/01 11:54:17;;;;;;;1.63;1.52;;;;;;;;;;6254010;23;20169;-83
2023/07/01 11:56:45;;;;;;;1.08;1.08;;;;;;;;;;6258089;23;20173;-84
2023/07/01 11:59:29;;;;;;;2.33;1.88;;;;;;;;;;6256625;22;20220;-84
2023/07/01 12:01:56;;;;;;;1.95;1.55;;;;;;;;;;6257889;23;20153;-84
2023/07/01 12:04:24;;;;;;;3.05;1.83;;;;;;;;;;6257126;23;20671;-84
2023/07/01 12:07:07;;;;;;;2.20;1.70;;;;;;;;;;6255211;23;20535;-84
2023/07/01 12:09:35;;;;;;;1.23;1.23;;;;;;;;;;6257508;22;20248;-83
2023/07/01 12:12:02;;;;;;;1.20;1.20;;;;;;;;;;6256281;23;20177;-84
2023/07/01 12:14:30;;;;;;;1.33;1.27;;;;;;;;;;6257761;23;20541;-84
2023/07/01 12:16:58;;;;;;;0.90;0.90;;;;;;;;;;6255937;23;20173;-84
2023/07/01 12:19:26;;;;;;;1.02;0.93;;;;;;;;;;6255801;22;20204;-85
2023/07/01 12:21:57;;;;;;;1.13;1.10;;;;;;;;;;6256843;23;20215;-84
2023/07/01 12:24:26;;;;;;;1.10;1.10;;;;;;;;;;6255374;23;20158;-85
2023/07/01 12:26:55;;;;;;;1.05;1.05;;;;;;;;;;6255238;23;20177;-84
2023/07/01 12:29:24;;;;;;;1.20;1.10;;;;;;;;;;6255932;23;20216;-84
2023/07/01 12:31:53;;;;;;;1.55;1.25;;;;;;;;;;6258352;23;20177;-85
2023/07/01 12:34:21;;;;;;;1.17;1.10;;;;;;;;;;6255056;22;20200;-85
2023/07/01 12:36:49;;;;;;;1.20;1.13;;;;;;;;;;6255001;23;20188;-84
2023/07/01 12:39:18;;;;;;;1.38;1.27;;;;;;;;;;6255269;23;20197;-84
2023/07/01 12:41:47;;;;;;;1.50;1.35;;;;;;;;;;6256719;23;20486;-84
2023/07/01 12:44:15;;;;;;;1.38;1.30;;;;;;;;;;6256614;23;20176;-84
2023/07/01 12:46:44;;;;;;;1.30;1.20;;;;;;;;;;6256419;23;20201;-83
2023/07/01 12:49:12;;;;;;;1.20;1.20;;;;;;;;;;6256285;23;20193;-83
2023/07/01 12:51:40;;;;;;;2.65;1.20;;;;;;;;;;6257314;23;20180;-83
2023/07/01 12:54:08;;;;;;;1.08;1.08;;;;;;;;;;6257844;23;20189;-84
2023/07/01 12:56:38;;;;;;;1.38;1.27;;;;;;;;;;6256586;23;20169;-83
2023/07/01 12:59:06;;;;;;;1.38;1.08;;;;;;;;;;6255897;23;20213;-85
2023/07/01 13:01:34;;;;;;;1.38;1.27;;;;;;;;;;6257660;23;20173;-84
2023/07/01 13:04:01;;;;;;;1.00;0.90;;;;;;;;;;6256262;23;20181;-84
2023/07/01 13:06:31;;;;;;;1.52;1.42;;;;;;;;;;6258542;23;20192;-85
2023/07/01 13:09:00;;;;;;;1.40;1.30;;;;;;;;;;6259091;23;20231;-84
2023/07/01 13:11:29;;;;;;;1.52;1.42;;;;;;;;;;6259401;23;20174;-84
2023/07/01 13:13:58;;;;;;;1.27;1.00;;;;;;;;;;6257093;23;20231;-84
2023/07/01 13:16:31;;;;;;;1.30;1.20;;;;;;;;;;6259588;23;20173;-83
2023/07/01 13:19:02;;;;;;;1.25;1.17;;;;;;;;;;6258909;23;20212;-85
2023/07/01 13:21:29;;;;;;;1.35;1.25;;;;;;;;;;6258645;23;20174;-83
2023/07/01 13:23:57;;;;;;;0.95;0.95;;;;;;;;;;6256878;23;20173;-83
2023/07/01 13:26:29;;;;;;;2.35;1.15;;;;;;;;;;6258656;23;20510;-84
2023/07/01 13:28:59;;;;;;;1.13;1.10;;;;;;;;;;6258298;23;20203;-84
2023/07/01 13:31:26;;;;;;;1.27;1.00;;;;;;;;;;6256649;23;20189;-84
2023/07/01 13:33:58;;;;;;;1.10;1.10;;;;;;;;;;6258905;22;20224;-83
2023/07/01 13:36:25;;;;;;;1.27;1.00;;;;;;;;;;6256067;23;20235;-84
2023/07/01 13:38:53;;;;;;;1.20;1.10;;;;;;;;;;6257654;23;20535;-84
2023/07/01 13:41:27;;;;;;;1.73;1.20;;;;;;;;;;6252871;23;20172;-85
2023/07/01 13:44:04;;;;;;;0.90;0.90;;;;;;;;;;6251230;23;20172;-84
2023/07/01 13:46:39;;;;;;;0.80;0.80;;;;;;;;;;6256256;23;20216;-84
2023/07/01 13:49:07;;;;;;;3.88;3.55;;;;;;;;;;6257024;23;20203;-83
2023/07/01 13:51:37;;;;;;;3.45;3.15;;;;;;;;;;6255097;23;20212;-83
2023/07/01 13:54:08;;;;;;;4.47;3.85;;;;;;;;;;6256441;23;20200;-83
2023/07/01 13:56:37;;;;;;;2.95;2.75;;;;;;;;;;6256908;23;20188;-84
2023/07/01 13:59:06;;;;;;;7.53;6.80;;;;;;;;;;6258263;23;20193;-84
2023/07/01 14:01:37;;;;;;;5.93;5.43;;;;;;;;;;6258258;23;20208;-83
2023/07/01 14:04:05;;;;;;;4.47;4.07;;;;;;;;;;6255560;23;20157;-84
2023/07/01 14:06:36;;;;;;;3.08;2.88;;;;;;;;;;6253895;22;20185;-84
2023/07/01 14:09:04;;;;;;;3.83;3.45;;;;;;;;;;6251487;23;20193;-84
2023/07/01 14:11:32;;;;;;;5.38;4.88;;;;;;;;;;6252179;23;20177;-83
2023/07/01 14:13:59;;;;;;;2.75;2.55;;;;;;;;;;6253442;23;20272;-83
2023/07/01 14:16:29;;;;;;;3.38;3.08;;;;;;;;;;6253867;23;20173;-83
2023/07/01 14:18:56;;;;;;;2.50;2.30;;;;;;;;;;6253605;22;20193;-84
2023/07/01 14:21:28;;;;;;;1.77;1.45;;;;;;;;;;6253212;23;20176;-84
2023/07/01 14:24:04;;;;;;;1.45;1.35;;;;;;;;;;6253154;23;20176;-83
2023/07/01 14:26:38;;;;;;;0.98;0.98;;;;;;;;;;6252975;23;20538;-83
2023/07/01 14:29:05;;;;;;;1.00;1.00;;;;;;;;;;6251447;23;20200;-83
2023/07/01 14:31:35;;;;;;;0.98;0.93;;;;;;;;;;6253046;23;20169;-83
2023/07/01 14:34:05;;;;;;;1.33;0.80;;;;;;;;;;6253019;23;20520;-83
2023/07/01 14:36:36;;;;;;;0.98;0.98;;;;;;;;;;6252951;23;20566;-83
2023/07/01 14:39:05;;;;;;;0.93;0.93;;;;;;;;;;6252135;23;20196;-83
2023/07/01 14:41:33;;;;;;;0.73;0.73;;;;;;;;;;6254523;23;20628;-83
2023/07/01 14:44:03;;;;;;;0.90;0.90;;;;;;;;;;6252571;23;20256;-83
2023/07/01 14:46:34;;;;;;;1.20;1.05;;;;;;;;;;6252094;22;20215;-84
2023/07/01 14:49:03;;;;;;;2.03;1.00;;;;;;;;;;6253440;23;20224;-83
2023/07/01 14:51:30;;;;;;;0.82;0.82;;;;;;;;;;6252252;22;20648;-82
2023/07/01 14:53:58;;;;;;;0.68;0.68;;;;;;;;;;6252506;23;20261;-83
2023/07/01 14:56:27;;;;;;;1.10;1.10;;;;;;;;;;6251787;23;20236;-83